sensor_id;sensor_type;location;lat;lon;timestamp;pressure;altitude;pressure_sealevel;temperature;humidity
36692;BME280;22678;52.052;4.242;2022-07-03T00:00:17;101826.06;;;21.50;50.87
36692;BME280;22678;52.052;4.242;2022-07-03T00:02:42;101811.13;;;21.43;51.04
36692;BME280;22678;52.052;4.242;2022-07-03T00:05:08;101822.66;;;21.45;51.00
36692;BME280;22678;52.052;4.242;2022-07-03T00:07:34;101816.38;;;21.46;51.11
36692;BME280;22678;52.052;4.242;2022-07-03T00:09:59;101795.44;;;21.34;51.03
36692;BME280;22678;52.052;4.242;2022-07-03T00:12:24;101786.25;;;21.17;50.91
36692;BME280;22678;52.052;4.242;2022-07-03T00:14:50;101789.56;;;21.24;51.25
36692;BME280;22678;52.052;4.242;2022-07-03T00:17:16;101800.31;;;21.23;51.14
36692;BME280;22678;52.052;4.242;2022-07-03T00:19:42;101811.75;;;21.28;50.88
36692;BME280;22678;52.052;4.242;2022-07-03T00:22:11;101811.19;;;21.18;51.09
36692;BME280;22678;52.052;4.242;2022-07-03T00:27:19;101814.78;;;21.17;51.23
36692;BME280;22678;52.052;4.242;2022-07-03T00:29:46;101823.78;;;21.16;51.59
36692;BME280;22678;52.052;4.242;2022-07-03T00:32:30;101815.69;;;21.17;51.46
36692;BME280;22678;52.052;4.242;2022-07-03T00:34:56;101811.38;;;21.13;51.51
36692;BME280;22678;52.052;4.242;2022-07-03T00:37:23;101796.59;;;21.03;51.57
36692;BME280;22678;52.052;4.242;2022-07-03T00:39:48;101791.47;;;20.97;51.78
36692;BME280;22678;52.052;4.242;2022-07-03T00:42:14;101791.59;;;20.94;51.59
36692;BME280;22678;52.052;4.242;2022-07-03T00:47:39;101808.44;;;20.96;52.01
36692;BME280;22678;52.052;4.242;2022-07-03T00:50:08;101806.69;;;20.95;52.00
36692;BME280;22678;52.052;4.242;2022-07-03T00:52:36;101766.63;;;20.70;51.97
36692;BME280;22678;52.052;4.242;2022-07-03T00:55:07;101810.44;;;20.91;52.09
36692;BME280;22678;52.052;4.242;2022-07-03T00:57:32;101802.72;;;20.81;51.76
36692;BME280;22678;52.052;4.242;2022-07-03T00:59:58;101809.94;;;20.79;52.07
36692;BME280;22678;52.052;4.242;2022-07-03T01:05:29;101825.97;;;20.79;52.80
36692;BME280;22678;52.052;4.242;2022-07-03T01:11:21;101801.31;;;20.71;52.92
36692;BME280;22678;52.052;4.242;2022-07-03T01:17:06;101788.56;;;20.53;52.53
36692;BME280;22678;52.052;4.242;2022-07-03T01:19:41;101808.94;;;20.57;52.83
36692;BME280;22678;52.052;4.242;2022-07-03T01:25:12;101818.94;;;20.50;53.12
36692;BME280;22678;52.052;4.242;2022-07-03T01:30:32;101806.72;;;20.43;53.48
36692;BME280;22678;52.052;4.242;2022-07-03T01:33:02;101807.69;;;20.40;53.88
36692;BME280;22678;52.052;4.242;2022-07-03T01:35:39;101803.34;;;20.38;54.19
36692;BME280;22678;52.052;4.242;2022-07-03T01:38:07;101802.72;;;20.29;54.47
36692;BME280;22678;52.052;4.242;2022-07-03T01:40:36;101804.53;;;20.29;54.75
36692;BME280;22678;52.052;4.242;2022-07-03T01:43:04;101800.25;;;20.23;55.04
36692;BME280;22678;52.052;4.242;2022-07-03T01:45:31;101795.88;;;20.21;55.24
36692;BME280;22678;52.052;4.242;2022-07-03T01:47:58;101790.75;;;20.15;55.48
36692;BME280;22678;52.052;4.242;2022-07-03T01:50:26;101793.38;;;20.16;55.83
36692;BME280;22678;52.052;4.242;2022-07-03T01:52:54;101790.75;;;20.15;56.26
36692;BME280;22678;52.052;4.242;2022-07-03T01:55:20;101790.97;;;20.08;56.55
36692;BME280;22678;52.052;4.242;2022-07-03T01:57:49;101802.28;;;20.15;56.67
36692;BME280;22678;52.052;4.242;2022-07-03T02:00:20;101791.66;;;20.13;57.12
36692;BME280;22678;52.052;4.242;2022-07-03T02:08:03;101787.50;;;20.05;57.87
36692;BME280;22678;52.052;4.242;2022-07-03T02:10:34;101778.84;;;19.98;58.18
36692;BME280;22678;52.052;4.242;2022-07-03T02:13:08;101768.16;;;19.98;58.30
36692;BME280;22678;52.052;4.242;2022-07-03T02:15:38;101733.47;;;19.68;58.25
36692;BME280;22678;52.052;4.242;2022-07-03T02:18:33;101778.72;;;20.01;58.49
36692;BME280;22678;52.052;4.242;2022-07-03T02:21:18;101774.31;;;20.00;58.68
36692;BME280;22678;52.052;4.242;2022-07-03T02:24:22;101773.50;;;19.98;58.67
36692;BME280;22678;52.052;4.242;2022-07-03T02:26:56;101761.28;;;19.91;58.82
36692;BME280;22678;52.052;4.242;2022-07-03T02:29:31;101747.19;;;19.86;58.95
36692;BME280;22678;52.052;4.242;2022-07-03T02:31:58;101766.66;;;19.89;59.10
36692;BME280;22678;52.052;4.242;2022-07-03T02:34:24;101742.22;;;19.73;59.19
36692;BME280;22678;52.052;4.242;2022-07-03T02:36:58;101759.00;;;19.77;59.40
36692;BME280;22678;52.052;4.242;2022-07-03T02:39:40;101753.97;;;19.68;59.56
36692;BME280;22678;52.052;4.242;2022-07-03T02:42:14;101751.44;;;19.63;59.62
36692;BME280;22678;52.052;4.242;2022-07-03T02:44:51;101786.78;;;19.71;59.82
36692;BME280;22678;52.052;4.242;2022-07-03T02:50:08;101771.94;;;19.63;60.29
36692;BME280;22678;52.052;4.242;2022-07-03T03:01:12;101780.34;;;19.49;60.36
36692;BME280;22678;52.052;4.242;2022-07-03T03:03:45;101727.22;;;19.13;60.38
36692;BME280;22678;52.052;4.242;2022-07-03T03:06:15;101761.31;;;19.31;60.31
36692;BME280;22678;52.052;4.242;2022-07-03T03:08:47;101782.41;;;19.40;60.52
36692;BME280;22678;52.052;4.242;2022-07-03T03:11:23;101763.16;;;19.29;60.80
36692;BME280;22678;52.052;4.242;2022-07-03T03:13:50;101768.50;;;19.29;60.91
36692;BME280;22678;52.052;4.242;2022-07-03T03:16:20;101779.13;;;19.31;60.97
36692;BME280;22678;52.052;4.242;2022-07-03T03:18:47;101780.03;;;19.30;61.19
36692;BME280;22678;52.052;4.242;2022-07-03T03:21:16;101759.94;;;19.18;61.12
36692;BME280;22678;52.052;4.242;2022-07-03T03:23:50;101782.84;;;19.25;61.41
36692;BME280;22678;52.052;4.242;2022-07-03T03:26:21;101773.25;;;19.18;61.60
36692;BME280;22678;52.052;4.242;2022-07-03T03:28:47;101767.13;;;19.16;61.67
36692;BME280;22678;52.052;4.242;2022-07-03T03:31:13;101772.44;;;19.16;61.90
36692;BME280;22678;52.052;4.242;2022-07-03T03:33:39;101780.41;;;19.17;61.93
36692;BME280;22678;52.052;4.242;2022-07-03T03:36:08;101763.94;;;19.03;62.25
36692;BME280;22678;52.052;4.242;2022-07-03T03:38:34;101782.31;;;19.12;62.36
36692;BME280;22678;52.052;4.242;2022-07-03T03:41:01;101782.34;;;19.11;62.43
36692;BME280;22678;52.052;4.242;2022-07-03T03:43:26;101776.31;;;19.05;62.72
36692;BME280;22678;52.052;4.242;2022-07-03T03:45:52;101790.50;;;19.06;62.88
36692;BME280;22678;52.052;4.242;2022-07-03T03:48:17;101783.63;;;18.97;63.38
36692;BME280;22678;52.052;4.242;2022-07-03T03:50:43;101794.19;;;19.00;63.57
36692;BME280;22678;52.052;4.242;2022-07-03T03:53:10;101782.84;;;18.94;63.69
36692;BME280;22678;52.052;4.242;2022-07-03T03:55:36;101784.63;;;18.93;64.32
36692;BME280;22678;52.052;4.242;2022-07-03T03:58:02;101779.44;;;18.88;64.08
36692;BME280;22678;52.052;4.242;2022-07-03T04:00:27;101776.81;;;18.85;64.49
36692;BME280;22678;52.052;4.242;2022-07-03T04:02:53;101793.59;;;18.90;64.54
36692;BME280;22678;52.052;4.242;2022-07-03T04:05:18;101789.22;;;18.88;64.66
36692;BME280;22678;52.052;4.242;2022-07-03T04:07:43;101773.47;;;18.79;64.80
36692;BME280;22678;52.052;4.242;2022-07-03T04:10:09;101785.72;;;18.86;64.75
36692;BME280;22678;52.052;4.242;2022-07-03T04:12:34;101778.63;;;18.85;65.18
36692;BME280;22678;52.052;4.242;2022-07-03T04:14:59;101781.47;;;18.79;65.18
36692;BME280;22678;52.052;4.242;2022-07-03T04:17:25;101771.81;;;18.74;65.26
36692;BME280;22678;52.052;4.242;2022-07-03T04:19:51;101782.38;;;18.78;65.42
36692;BME280;22678;52.052;4.242;2022-07-03T04:22:16;101793.91;;;18.78;65.56
36692;BME280;22678;52.052;4.242;2022-07-03T04:24:41;101771.00;;;18.71;65.70
36692;BME280;22678;52.052;4.242;2022-07-03T04:27:07;101784.19;;;18.76;66.11
36692;BME280;22678;52.052;4.242;2022-07-03T04:29:32;101790.47;;;18.74;66.12
36692;BME280;22678;52.052;4.242;2022-07-03T04:31:57;101766.00;;;18.59;66.13
36692;BME280;22678;52.052;4.242;2022-07-03T04:34:23;101781.91;;;18.62;66.27
36692;BME280;22678;52.052;4.242;2022-07-03T04:36:48;101760.94;;;18.49;66.75
36692;BME280;22678;52.052;4.242;2022-07-03T04:39:14;101798.56;;;18.70;66.65
36692;BME280;22678;52.052;4.242;2022-07-03T04:41:39;101779.19;;;18.63;66.81
36692;BME280;22678;52.052;4.242;2022-07-03T04:44:05;101793.22;;;18.71;67.13
36692;BME280;22678;52.052;4.242;2022-07-03T04:46:30;101789.69;;;18.69;67.48
36692;BME280;22678;52.052;4.242;2022-07-03T04:48:55;101787.09;;;18.66;67.37
36692;BME280;22678;52.052;4.242;2022-07-03T04:51:21;101769.63;;;18.56;67.58
36692;BME280;22678;52.052;4.242;2022-07-03T04:53:46;101688.06;;;18.19;67.76
36692;BME280;22678;52.052;4.242;2022-07-03T04:56:12;101784.34;;;18.69;67.72
36692;BME280;22678;52.052;4.242;2022-07-03T04:58:37;101704.97;;;18.16;67.94
36692;BME280;22678;52.052;4.242;2022-07-03T05:01:02;101758.41;;;18.45;67.84
36692;BME280;22678;52.052;4.242;2022-07-03T05:03:27;101795.16;;;18.65;68.15
36692;BME280;22678;52.052;4.242;2022-07-03T05:05:53;101786.47;;;18.58;68.45
36692;BME280;22678;52.052;4.242;2022-07-03T05:08:18;101803.13;;;18.65;68.63
36692;BME280;22678;52.052;4.242;2022-07-03T05:10:45;101783.03;;;18.53;68.68
36692;BME280;22678;52.052;4.242;2022-07-03T05:13:11;101793.44;;;18.62;68.93
36692;BME280;22678;52.052;4.242;2022-07-03T05:15:36;101782.91;;;18.58;68.96
36692;BME280;22678;52.052;4.242;2022-07-03T05:18:01;101788.00;;;18.67;69.12
36692;BME280;22678;52.052;4.242;2022-07-03T05:20:27;101799.84;;;18.89;69.18
36692;BME280;22678;52.052;4.242;2022-07-03T05:23:02;101801.78;;;19.16;69.23
36692;BME280;22678;52.052;4.242;2022-07-03T05:25:29;101820.16;;;19.55;68.71
36692;BME280;22678;52.052;4.242;2022-07-03T05:27:56;101823.53;;;19.91;68.20
36692;BME280;22678;52.052;4.242;2022-07-03T05:30:22;101809.38;;;20.16;67.39
36692;BME280;22678;52.052;4.242;2022-07-03T05:32:48;101826.84;;;20.53;66.41
36692;BME280;22678;52.052;4.242;2022-07-03T05:35:14;101812.09;;;20.68;65.28
36692;BME280;22678;52.052;4.242;2022-07-03T05:37:39;101820.06;;;20.95;64.58
36692;BME280;22678;52.052;4.242;2022-07-03T05:40:05;101817.44;;;20.93;63.85
36692;BME280;22678;52.052;4.242;2022-07-03T05:42:31;101804.81;;;20.73;63.66
36692;BME280;22678;52.052;4.242;2022-07-03T05:44:56;101822.75;;;20.70;63.67
36692;BME280;22678;52.052;4.242;2022-07-03T05:47:22;101823.41;;;20.50;64.08
36692;BME280;22678;52.052;4.242;2022-07-03T05:49:47;101811.63;;;20.28;64.50
36692;BME280;22678;52.052;4.242;2022-07-03T05:52:13;101815.50;;;20.20;64.83
36692;BME280;22678;52.052;4.242;2022-07-03T05:54:38;101805.13;;;20.10;64.93
36692;BME280;22678;52.052;4.242;2022-07-03T05:57:04;101812.22;;;20.11;65.23
36692;BME280;22678;52.052;4.242;2022-07-03T05:59:29;101825.22;;;20.22;65.90
36692;BME280;22678;52.052;4.242;2022-07-03T06:01:55;101829.06;;;20.40;65.29
36692;BME280;22678;52.052;4.242;2022-07-03T06:04:20;101799.28;;;20.26;64.93
36692;BME280;22678;52.052;4.242;2022-07-03T06:06:45;101814.13;;;20.35;64.77
36692;BME280;22678;52.052;4.242;2022-07-03T06:09:11;101801.91;;;20.27;65.10
36692;BME280;22678;52.052;4.242;2022-07-03T06:11:36;101793.94;;;20.26;64.91
36692;BME280;22678;52.052;4.242;2022-07-03T06:14:01;101812.53;;;20.29;64.83
36692;BME280;22678;52.052;4.242;2022-07-03T06:16:27;101810.03;;;20.24;64.53
36692;BME280;22678;52.052;4.242;2022-07-03T06:18:52;101830.66;;;20.19;64.67
36692;BME280;22678;52.052;4.242;2022-07-03T06:21:17;101835.22;;;20.16;65.27
36692;BME280;22678;52.052;4.242;2022-07-03T06:23:42;101827.69;;;20.00;65.32
36692;BME280;22678;52.052;4.242;2022-07-03T06:26:08;101821.56;;;19.98;65.70
36692;BME280;22678;52.052;4.242;2022-07-03T06:28:33;101838.34;;;20.02;65.62
36692;BME280;22678;52.052;4.242;2022-07-03T06:30:58;101830.47;;;19.97;65.94
36692;BME280;22678;52.052;4.242;2022-07-03T06:33:24;101830.69;;;19.91;66.05
36692;BME280;22678;52.052;4.242;2022-07-03T06:35:49;101843.88;;;19.95;66.09
36692;BME280;22678;52.052;4.242;2022-07-03T06:38:15;101820.09;;;19.88;66.30
36692;BME280;22678;52.052;4.242;2022-07-03T06:40:40;101832.41;;;19.92;66.28
36692;BME280;22678;52.052;4.242;2022-07-03T06:43:05;101840.41;;;19.92;66.68
36692;BME280;22678;52.052;4.242;2022-07-03T06:45:31;101820.25;;;19.82;66.49
36692;BME280;22678;52.052;4.242;2022-07-03T06:47:56;101829.72;;;19.92;66.45
36692;BME280;22678;52.052;4.242;2022-07-03T06:50:22;101822.47;;;20.24;65.93
36692;BME280;22678;52.052;4.242;2022-07-03T06:52:47;101817.44;;;20.68;64.79
36692;BME280;22678;52.052;4.242;2022-07-03T06:55:12;101829.75;;;21.23;63.67
36692;BME280;22678;52.052;4.242;2022-07-03T06:57:38;101816.72;;;21.37;61.97
36692;BME280;22678;52.052;4.242;2022-07-03T07:00:04;101825.78;;;21.33;61.76
36692;BME280;22678;52.052;4.242;2022-07-03T07:02:30;101831.41;;;21.50;60.97
36692;BME280;22678;52.052;4.242;2022-07-03T07:04:55;101829.41;;;21.79;60.59
36692;BME280;22678;52.052;4.242;2022-07-03T07:07:20;101825.78;;;22.02;59.35
36692;BME280;22678;52.052;4.242;2022-07-03T07:09:46;101829.28;;;22.04;58.57
36692;BME280;22678;52.052;4.242;2022-07-03T07:12:11;101842.31;;;21.92;58.43
36692;BME280;22678;52.052;4.242;2022-07-03T07:14:36;101844.91;;;21.71;58.86
36692;BME280;22678;52.052;4.242;2022-07-03T07:17:02;101837.34;;;21.59;59.54
36692;BME280;22678;52.052;4.242;2022-07-03T07:19:27;101835.47;;;21.61;59.64
36692;BME280;22678;52.052;4.242;2022-07-03T07:21:52;101857.78;;;21.61;59.63
36692;BME280;22678;52.052;4.242;2022-07-03T07:24:17;101860.63;;;21.57;59.49
36692;BME280;22678;52.052;4.242;2022-07-03T07:26:43;101867.84;;;21.55;59.59
36692;BME280;22678;52.052;4.242;2022-07-03T07:29:08;101859.19;;;21.46;59.94
36692;BME280;22678;52.052;4.242;2022-07-03T07:31:33;101866.28;;;21.47;59.12
36692;BME280;22678;52.052;4.242;2022-07-03T07:33:59;101861.78;;;21.48;59.38
36692;BME280;22678;52.052;4.242;2022-07-03T07:36:24;101867.16;;;21.73;60.12
36692;BME280;22678;52.052;4.242;2022-07-03T07:38:49;101843.69;;;22.02;59.24
36692;BME280;22678;52.052;4.242;2022-07-03T07:41:15;101863.72;;;22.14;58.47
36692;BME280;22678;52.052;4.242;2022-07-03T07:43:40;101853.16;;;22.11;57.83
36692;BME280;22678;52.052;4.242;2022-07-03T07:46:05;101861.56;;;22.01;58.03
36692;BME280;22678;52.052;4.242;2022-07-03T07:48:34;101873.53;;;22.15;57.67
36692;BME280;22678;52.052;4.242;2022-07-03T07:50:59;101858.56;;;22.09;57.40
36692;BME280;22678;52.052;4.242;2022-07-03T07:53:24;101871.50;;;22.20;57.38
36692;BME280;22678;52.052;4.242;2022-07-03T07:55:50;101867.97;;;22.19;57.65
36692;BME280;22678;52.052;4.242;2022-07-03T07:58:15;101866.72;;;22.28;57.91
36692;BME280;22678;52.052;4.242;2022-07-03T08:00:40;101877.66;;;22.46;57.19
36692;BME280;22678;52.052;4.242;2022-07-03T08:03:26;101861.84;;;22.39;57.20
36692;BME280;22678;52.052;4.242;2022-07-03T08:06:09;101879.44;;;22.45;56.97
36692;BME280;22678;52.052;4.242;2022-07-03T08:08:35;101871.53;;;22.42;57.02
36692;BME280;22678;52.052;4.242;2022-07-03T08:11:00;101863.06;;;22.31;56.75
36692;BME280;22678;52.052;4.242;2022-07-03T08:13:25;101885.69;;;22.23;57.33
36692;BME280;22678;52.052;4.242;2022-07-03T08:15:52;101876.75;;;22.01;57.58
36692;BME280;22678;52.052;4.242;2022-07-03T08:18:17;101885.84;;;21.97;58.01
36692;BME280;22678;52.052;4.242;2022-07-03T08:20:42;101871.22;;;21.82;58.48
36692;BME280;22678;52.052;4.242;2022-07-03T08:23:08;101868.41;;;21.86;58.71
36692;BME280;22678;52.052;4.242;2022-07-03T08:25:33;101854.38;;;21.80;58.62
36692;BME280;22678;52.052;4.242;2022-07-03T08:27:59;101886.59;;;22.00;58.68
36692;BME280;22678;52.052;4.242;2022-07-03T08:30:25;101885.59;;;22.03;58.64
36692;BME280;22678;52.052;4.242;2022-07-03T08:32:52;101889.22;;;22.02;58.23
36692;BME280;22678;52.052;4.242;2022-07-03T08:35:18;101885.66;;;22.01;58.42
36692;BME280;22678;52.052;4.242;2022-07-03T08:37:43;101867.31;;;21.91;58.71
36692;BME280;22678;52.052;4.242;2022-07-03T08:40:12;101883.00;;;22.23;58.81
36692;BME280;22678;52.052;4.242;2022-07-03T08:42:50;101879.56;;;22.42;58.05
36692;BME280;22678;52.052;4.242;2022-07-03T08:45:20;101878.25;;;22.52;57.89
36692;BME280;22678;52.052;4.242;2022-07-03T08:47:47;101876.66;;;22.48;57.54
36692;BME280;22678;52.052;4.242;2022-07-03T08:50:15;101886.50;;;22.48;57.08
36692;BME280;22678;52.052;4.242;2022-07-03T08:52:41;101884.94;;;22.42;57.29
36692;BME280;22678;52.052;4.242;2022-07-03T08:55:08;101871.16;;;22.29;57.05
36692;BME280;22678;52.052;4.242;2022-07-03T08:57:36;101885.63;;;22.47;57.39
36692;BME280;22678;52.052;4.242;2022-07-03T09:00:06;101883.47;;;22.55;56.72
36692;BME280;22678;52.052;4.242;2022-07-03T09:02:32;101882.13;;;22.67;56.71
36692;BME280;22678;52.052;4.242;2022-07-03T09:05:02;101885.94;;;22.82;56.33
36692;BME280;22678;52.052;4.242;2022-07-03T09:07:31;101888.09;;;22.95;56.72
36692;BME280;22678;52.052;4.242;2022-07-03T09:09:59;101883.13;;;23.06;56.39
36692;BME280;22678;52.052;4.242;2022-07-03T09:12:24;101895.09;;;23.19;55.44
36692;BME280;22678;52.052;4.242;2022-07-03T09:14:50;101889.56;;;23.22;54.73
36692;BME280;22678;52.052;4.242;2022-07-03T09:17:15;101875.09;;;23.26;55.07
36692;BME280;22678;52.052;4.242;2022-07-03T09:22:28;101885.44;;;23.74;53.40
36692;BME280;22678;52.052;4.242;2022-07-03T09:25:08;101881.66;;;23.78;53.02
36692;BME280;22678;52.052;4.242;2022-07-03T09:27:35;101885.44;;;23.74;52.01
36692;BME280;22678;52.052;4.242;2022-07-03T09:30:06;101893.13;;;23.62;52.32
36692;BME280;22678;52.052;4.242;2022-07-03T09:32:41;101891.78;;;23.52;52.82
36692;BME280;22678;52.052;4.242;2022-07-03T09:35:21;101886.19;;;23.38;52.29
36692;BME280;22678;52.052;4.242;2022-07-03T09:38:02;101890.91;;;23.33;51.41
36692;BME280;22678;52.052;4.242;2022-07-03T09:40:50;101909.38;;;23.59;51.17
36692;BME280;22678;52.052;4.242;2022-07-03T09:43:22;101890.19;;;23.48;51.54
36692;BME280;22678;52.052;4.242;2022-07-03T09:48:31;101897.25;;;23.70;49.72
36692;BME280;22678;52.052;4.242;2022-07-03T09:53:59;101914.41;;;23.86;49.16
36692;BME280;22678;52.052;4.242;2022-07-03T09:56:43;101909.78;;;24.09;49.53
36692;BME280;22678;52.052;4.242;2022-07-03T09:59:14;101886.50;;;24.27;48.64
36692;BME280;22678;52.052;4.242;2022-07-03T10:04:21;101904.09;;;24.15;48.28
36692;BME280;22678;52.052;4.242;2022-07-03T10:09:18;101911.31;;;23.95;49.59
36692;BME280;22678;52.052;4.242;2022-07-03T10:11:44;101904.50;;;23.88;49.27
36692;BME280;22678;52.052;4.242;2022-07-03T10:14:13;101908.97;;;24.07;49.20
36692;BME280;22678;52.052;4.242;2022-07-03T10:16:38;101896.50;;;24.06;49.07
36692;BME280;22678;52.052;4.242;2022-07-03T10:19:06;101920.53;;;24.09;48.71
36692;BME280;22678;52.052;4.242;2022-07-03T10:21:33;101914.03;;;24.13;49.47
36692;BME280;22678;52.052;4.242;2022-07-03T10:24:02;101898.50;;;24.20;49.46
36692;BME280;22678;52.052;4.242;2022-07-03T10:26:28;101929.31;;;24.49;48.96
36692;BME280;22678;52.052;4.242;2022-07-03T10:28:55;101915.63;;;24.73;48.96
36692;BME280;22678;52.052;4.242;2022-07-03T10:31:23;101925.44;;;24.91;48.67
36692;BME280;22678;52.052;4.242;2022-07-03T10:33:51;101933.25;;;24.78;47.70
36692;BME280;22678;52.052;4.242;2022-07-03T10:36:17;101921.50;;;24.81;47.83
36692;BME280;22678;52.052;4.242;2022-07-03T10:38:46;101896.47;;;24.61;47.95
36692;BME280;22678;52.052;4.242;2022-07-03T10:41:20;101930.09;;;24.88;47.34
36692;BME280;22678;52.052;4.242;2022-07-03T10:44:07;101935.88;;;24.80;47.22
36692;BME280;22678;52.052;4.242;2022-07-03T10:46:51;101936.19;;;24.74;47.46
36692;BME280;22678;52.052;4.242;2022-07-03T10:49:17;101922.34;;;24.81;47.56
36692;BME280;22678;52.052;4.242;2022-07-03T10:54:18;101935.38;;;25.24;46.52
36692;BME280;22678;52.052;4.242;2022-07-03T11:02:39;101934.75;;;25.36;46.24
36692;BME280;22678;52.052;4.242;2022-07-03T11:05:25;101931.19;;;25.18;46.18
36692;BME280;22678;52.052;4.242;2022-07-03T11:13:01;101949.00;;;24.69;47.93
36692;BME280;22678;52.052;4.242;2022-07-03T11:15:54;101943.47;;;24.53;48.50
36692;BME280;22678;52.052;4.242;2022-07-03T11:18:29;101940.47;;;24.41;48.51
36692;BME280;22678;52.052;4.242;2022-07-03T11:21:06;101941.94;;;24.29;48.56
36692;BME280;22678;52.052;4.242;2022-07-03T11:36:25;101938.72;;;24.21;48.61
36692;BME280;22678;52.052;4.242;2022-07-03T11:44:02;101937.22;;;24.52;48.20
36692;BME280;22678;52.052;4.242;2022-07-03T11:46:30;101948.06;;;24.70;47.60
36692;BME280;22678;52.052;4.242;2022-07-03T11:49:05;101960.75;;;24.66;47.69
36692;BME280;22678;52.052;4.242;2022-07-03T11:51:31;101955.91;;;24.55;47.76
36692;BME280;22678;52.052;4.242;2022-07-03T11:53:57;101952.06;;;24.42;48.32
36692;BME280;22678;52.052;4.242;2022-07-03T11:56:22;101942.91;;;24.46;49.07
36692;BME280;22678;52.052;4.242;2022-07-03T11:58:51;101948.53;;;24.78;48.75
36692;BME280;22678;52.052;4.242;2022-07-03T12:04:17;101952.13;;;25.31;45.90
36692;BME280;22678;52.052;4.242;2022-07-03T12:06:44;101950.09;;;25.52;45.75
36692;BME280;22678;52.052;4.242;2022-07-03T12:09:23;101953.28;;;25.76;46.27
36692;BME280;22678;52.052;4.242;2022-07-03T12:12:06;101952.81;;;26.01;45.91
36692;BME280;22678;52.052;4.242;2022-07-03T12:14:41;101960.56;;;26.08;45.00
36692;BME280;22678;52.052;4.242;2022-07-03T12:17:18;101954.56;;;26.02;44.74
36692;BME280;22678;52.052;4.242;2022-07-03T12:22:10;101940.31;;;26.00;45.33
36692;BME280;22678;52.052;4.242;2022-07-03T12:24:36;101953.78;;;26.00;44.36
36692;BME280;22678;52.052;4.242;2022-07-03T12:27:02;101961.09;;;25.81;44.54
36692;BME280;22678;52.052;4.242;2022-07-03T12:29:29;101969.78;;;25.70;45.32
36692;BME280;22678;52.052;4.242;2022-07-03T12:31:55;101969.53;;;25.75;45.82
36692;BME280;22678;52.052;4.242;2022-07-03T12:34:20;101972.16;;;25.92;45.66
36692;BME280;22678;52.052;4.242;2022-07-03T12:36:59;101960.69;;;25.88;45.83
36692;BME280;22678;52.052;4.242;2022-07-03T12:39:47;101973.88;;;26.11;45.59
36692;BME280;22678;52.052;4.242;2022-07-03T12:42:17;101964.50;;;26.18;45.38
36692;BME280;22678;52.052;4.242;2022-07-03T12:44:54;101967.00;;;26.21;45.32
36692;BME280;22678;52.052;4.242;2022-07-03T12:47:21;101952.03;;;26.15;44.77
36692;BME280;22678;52.052;4.242;2022-07-03T12:49:46;101972.31;;;26.07;44.30
36692;BME280;22678;52.052;4.242;2022-07-03T12:52:11;101969.97;;;26.00;44.51
36692;BME280;22678;52.052;4.242;2022-07-03T12:54:37;101972.69;;;25.99;44.38
36692;BME280;22678;52.052;4.242;2022-07-03T12:57:07;101970.50;;;25.89;44.75
36692;BME280;22678;52.052;4.242;2022-07-03T13:00:10;101974.34;;;25.85;44.90
36692;BME280;22678;52.052;4.242;2022-07-03T13:02:38;101947.03;;;25.92;45.18
36692;BME280;22678;52.052;4.242;2022-07-03T13:05:21;101963.69;;;26.16;44.68
36692;BME280;22678;52.052;4.242;2022-07-03T13:07:50;101960.31;;;26.28;44.39
36692;BME280;22678;52.052;4.242;2022-07-03T13:10:17;101965.53;;;26.31;43.48
36692;BME280;22678;52.052;4.242;2022-07-03T13:12:52;101981.53;;;26.34;44.20
36692;BME280;22678;52.052;4.242;2022-07-03T13:15:18;101975.25;;;26.34;43.87
36692;BME280;22678;52.052;4.242;2022-07-03T13:20:38;101979.38;;;26.25;44.43
36692;BME280;22678;52.052;4.242;2022-07-03T13:23:05;101990.06;;;26.11;44.30
36692;BME280;22678;52.052;4.242;2022-07-03T13:25:32;101974.44;;;25.84;44.85
36692;BME280;22678;52.052;4.242;2022-07-03T13:28:10;101996.47;;;25.75;45.03
36692;BME280;22678;52.052;4.242;2022-07-03T13:30:37;102000.00;;;25.59;44.91
36692;BME280;22678;52.052;4.242;2022-07-03T13:33:03;102006.66;;;25.52;45.52
36692;BME280;22678;52.052;4.242;2022-07-03T13:35:29;101988.94;;;25.30;45.79
36692;BME280;22678;52.052;4.242;2022-07-03T13:37:54;102002.22;;;25.33;45.41
36692;BME280;22678;52.052;4.242;2022-07-03T13:40:19;101976.78;;;25.22;46.22
36692;BME280;22678;52.052;4.242;2022-07-03T13:42:45;101987.03;;;25.32;45.91
36692;BME280;22678;52.052;4.242;2022-07-03T13:45:10;101986.06;;;25.33;45.03
36692;BME280;22678;52.052;4.242;2022-07-03T13:47:36;102007.34;;;25.56;44.76
36692;BME280;22678;52.052;4.242;2022-07-03T13:50:02;101992.19;;;25.70;44.50
36692;BME280;22678;52.052;4.242;2022-07-03T13:52:27;102000.66;;;25.80;44.56
36692;BME280;22678;52.052;4.242;2022-07-03T13:54:52;101997.09;;;25.80;43.17
36692;BME280;22678;52.052;4.242;2022-07-03T13:57:18;101980.94;;;25.80;43.44
36692;BME280;22678;52.052;4.242;2022-07-03T13:59:43;102005.00;;;26.00;43.18
36692;BME280;22678;52.052;4.242;2022-07-03T14:02:09;102002.31;;;26.16;42.81
36692;BME280;22678;52.052;4.242;2022-07-03T14:04:35;102007.69;;;26.32;43.02
36692;BME280;22678;52.052;4.242;2022-07-03T14:07:00;101979.44;;;26.39;42.73
36692;BME280;22678;52.052;4.242;2022-07-03T14:09:25;101990.47;;;26.51;42.29
36692;BME280;22678;52.052;4.242;2022-07-03T14:11:51;101996.31;;;26.59;41.87
36692;BME280;22678;52.052;4.242;2022-07-03T14:14:16;102011.63;;;26.74;41.98
36692;BME280;22678;52.052;4.242;2022-07-03T14:16:42;102013.38;;;26.75;41.17
36692;BME280;22678;52.052;4.242;2022-07-03T14:19:07;101995.41;;;26.58;41.04
36692;BME280;22678;52.052;4.242;2022-07-03T14:21:33;101995.09;;;26.49;41.23
36692;BME280;22678;52.052;4.242;2022-07-03T14:23:59;101998.84;;;26.46;41.07
36692;BME280;22678;52.052;4.242;2022-07-03T14:26:24;101995.09;;;26.49;40.56